sensor_id;sensor_type;location;lat;lon;timestamp;temperature;humidity
23114;DHT22;11726;50.122;8.832;2022-12-07T00:01:22;4.00;99.90
23114;DHT22;11726;50.122;8.832;2022-12-07T00:03:49;4.00;99.90
23114;DHT22;11726;50.122;8.832;2022-12-07T00:06:17;4.00;99.90
23114;DHT22;11726;50.122;8.832;2022-12-07T00:08:44;4.00;99.90
23114;DHT22;11726;50.122;8.832;2022-12-07T00:11:12;4.00;99.90
23114;DHT22;11726;50.122;8.832;2022-12-07T00:13:39;4.00;99.90
23114;DHT22;11726;50.122;8.832;2022-12-07T00:16:07;4.00;99.90
23114;DHT22;11726;50.122;8.832;2022-12-07T00:18:34;4.10;99.90
23114;DHT22;11726;50.122;8.832;2022-12-07T00:21:01;4.00;99.90
23114;DHT22;11726;50.122;8.832;2022-12-07T00:23:28;4.10;99.90
23114;DHT22;11726;50.122;8.832;2022-12-07T00:25:55;4.10;99.90
23114;DHT22;11726;50.122;8.832;2022-12-07T00:28:21;4.10;99.90
23114;DHT22;11726;50.122;8.832;2022-12-07T00:30:48;4.10;99.90
23114;DHT22;11726;50.122;8.832;2022-12-07T00:33:15;4.10;99.90
23114;DHT22;11726;50.122;8.832;2022-12-07T00:35:41;4.10;99.90
23114;DHT22;11726;50.122;8.832;2022-12-07T00:38:07;4.20;99.90
23114;DHT22;11726;50.122;8.832;2022-12-07T00:40:34;4.20;99.90
23114;DHT22;11726;50.122;8.832;2022-12-07T00:43:01;4.20;99.90
23114;DHT22;11726;50.122;8.832;2022-12-07T00:45:27;4.20;99.90
23114;DHT22;11726;50.122;8.832;2022-12-07T00:47:54;4.10;99.90
23114;DHT22;11726;50.122;8.832;2022-12-07T00:50:20;4.10;99.90
23114;DHT22;11726;50.122;8.832;2022-12-07T00:52:47;4.10;99.90
23114;DHT22;11726;50.122;8.832;2022-12-07T00:55:13;4.10;99.90
23114;DHT22;11726;50.122;8.832;2022-12-07T00:57:39;4.10;99.90
23114;DHT22;11726;50.122;8.832;2022-12-07T01:00:06;4.10;99.90
23114;DHT22;11726;50.122;8.832;2022-12-07T01:02:33;4.20;99.90
23114;DHT22;11726;50.122;8.832;2022-12-07T01:04:59;4.20;99.90
23114;DHT22;11726;50.122;8.832;2022-12-07T01:07:26;4.20;99.90
23114;DHT22;11726;50.122;8.832;2022-12-07T01:09:52;4.20;99.90
23114;DHT22;11726;50.122;8.832;2022-12-07T01:12:19;4.20;99.90
23114;DHT22;11726;50.122;8.832;2022-12-07T01:14:45;4.20;99.90
23114;DHT22;11726;50.122;8.832;2022-12-07T01:17:12;4.30;99.90
23114;DHT22;11726;50.122;8.832;2022-12-07T01:19:39;4.30;99.90
23114;DHT22;11726;50.122;8.832;2022-12-07T01:22:05;4.30;99.90
23114;DHT22;11726;50.122;8.832;2022-12-07T01:24:31;4.30;99.90
23114;DHT22;11726;50.122;8.832;2022-12-07T01:26:58;4.30;99.90
23114;DHT22;11726;50.122;8.832;2022-12-07T01:29:24;4.30;99.90
23114;DHT22;11726;50.122;8.832;2022-12-07T01:31:51;4.30;99.90
23114;DHT22;11726;50.122;8.832;2022-12-07T01:34:17;4.40;99.90
23114;DHT22;11726;50.122;8.832;2022-12-07T01:36:44;4.30;99.90
23114;DHT22;11726;50.122;8.832;2022-12-07T01:39:10;4.30;99.90
23114;DHT22;11726;50.122;8.832;2022-12-07T01:41:38;4.30;99.90
23114;DHT22;11726;50.122;8.832;2022-12-07T01:46:36;4.30;99.90
23114;DHT22;11726;50.122;8.832;2022-12-07T01:49:03;4.40;99.90
23114;DHT22;11726;50.122;8.832;2022-12-07T01:51:31;4.30;99.90
23114;DHT22;11726;50.122;8.832;2022-12-07T01:53:57;4.40;99.90
23114;DHT22;11726;50.122;8.832;2022-12-07T01:56:25;4.40;99.90
23114;DHT22;11726;50.122;8.832;2022-12-07T01:58:52;4.40;99.90
23114;DHT22;11726;50.122;8.832;2022-12-07T02:01:20;4.30;99.90
23114;DHT22;11726;50.122;8.832;2022-12-07T02:03:47;4.30;99.90
23114;DHT22;11726;50.122;8.832;2022-12-07T02:06:15;4.30;99.90
23114;DHT22;11726;50.122;8.832;2022-12-07T02:08:42;4.40;99.90
23114;DHT22;11726;50.122;8.832;2022-12-07T02:11:09;4.30;99.90
23114;DHT22;11726;50.122;8.832;2022-12-07T02:13:37;4.30;99.90
23114;DHT22;11726;50.122;8.832;2022-12-07T02:31:29;4.30;99.90
23114;DHT22;11726;50.122;8.832;2022-12-07T02:34:00;4.30;99.90
23114;DHT22;11726;50.122;8.832;2022-12-07T02:36:31;4.30;99.90
23114;DHT22;11726;50.122;8.832;2022-12-07T02:39:00;4.30;99.90
23114;DHT22;11726;50.122;8.832;2022-12-07T02:41:46;4.30;99.90
23114;DHT22;11726;50.122;8.832;2022-12-07T02:44:14;4.40;99.90
23114;DHT22;11726;50.122;8.832;2022-12-07T02:46:44;4.40;99.90
23114;DHT22;11726;50.122;8.832;2022-12-07T02:49:13;4.30;99.90
23114;DHT22;11726;50.122;8.832;2022-12-07T02:51:43;4.30;99.90
23114;DHT22;11726;50.122;8.832;2022-12-07T02:54:15;4.30;99.90
23114;DHT22;11726;50.122;8.832;2022-12-07T02:59:34;4.30;99.90
23114;DHT22;11726;50.122;8.832;2022-12-07T03:02:25;4.30;99.90
23114;DHT22;11726;50.122;8.832;2022-12-07T03:15:19;4.30;99.90
23114;DHT22;11726;50.122;8.832;2022-12-07T03:17:47;4.30;99.90
23114;DHT22;11726;50.122;8.832;2022-12-07T03:20:16;4.40;99.90
23114;DHT22;11726;50.122;8.832;2022-12-07T03:22:45;4.30;99.90
23114;DHT22;11726;50.122;8.832;2022-12-07T03:25:13;4.30;99.90
23114;DHT22;11726;50.122;8.832;2022-12-07T03:27:46;4.30;99.90
23114;DHT22;11726;50.122;8.832;2022-12-07T03:30:17;4.30;99.90
23114;DHT22;11726;50.122;8.832;2022-12-07T03:37:46;4.30;99.90
23114;DHT22;11726;50.122;8.832;2022-12-07T03:43:13;4.30;99.90
23114;DHT22;11726;50.122;8.832;2022-12-07T03:45:41;4.30;99.90
23114;DHT22;11726;50.122;8.832;2022-12-07T03:53:44;4.20;99.90
23114;DHT22;11726;50.122;8.832;2022-12-07T03:56:12;4.30;99.90
23114;DHT22;11726;50.122;8.832;2022-12-07T03:58:40;4.30;99.90
23114;DHT22;11726;50.122;8.832;2022-12-07T04:01:07;4.30;99.90
23114;DHT22;11726;50.122;8.832;2022-12-07T04:03:33;4.30;99.90
23114;DHT22;11726;50.122;8.832;2022-12-07T04:06:00;4.30;99.90
23114;DHT22;11726;50.122;8.832;2022-12-07T04:08:26;4.30;99.90
23114;DHT22;11726;50.122;8.832;2022-12-07T04:10:53;4.20;99.90
23114;DHT22;11726;50.122;8.832;2022-12-07T04:13:19;4.30;99.90
23114;DHT22;11726;50.122;8.832;2022-12-07T04:15:46;4.20;99.90
23114;DHT22;11726;50.122;8.832;2022-12-07T04:18:12;4.30;99.90
23114;DHT22;11726;50.122;8.832;2022-12-07T04:20:39;4.30;99.90
23114;DHT22;11726;50.122;8.832;2022-12-07T04:23:05;4.30;99.90
23114;DHT22;11726;50.122;8.832;2022-12-07T04:25:32;4.30;99.90
23114;DHT22;11726;50.122;8.832;2022-12-07T04:27:58;4.30;99.90
23114;DHT22;11726;50.122;8.832;2022-12-07T04:30:25;4.30;99.90
23114;DHT22;11726;50.122;8.832;2022-12-07T04:32:51;4.30;99.90
23114;DHT22;11726;50.122;8.832;2022-12-07T04:35:18;4.30;99.90
23114;DHT22;11726;50.122;8.832;2022-12-07T04:37:44;4.30;99.90
23114;DHT22;11726;50.122;8.832;2022-12-07T04:40:11;4.30;99.90
23114;DHT22;11726;50.122;8.832;2022-12-07T04:42:39;4.40;99.90
23114;DHT22;11726;50.122;8.832;2022-12-07T04:45:05;4.40;99.90
23114;DHT22;11726;50.122;8.832;2022-12-07T04:47:32;4.40;99.90
23114;DHT22;11726;50.122;8.832;2022-12-07T04:49:58;4.40;99.90
23114;DHT22;11726;50.122;8.832;2022-12-07T04:52:26;4.40;99.90
23114;DHT22;11726;50.122;8.832;2022-12-07T04:54:52;4.40;99.90
23114;DHT22;11726;50.122;8.832;2022-12-07T04:57:19;4.40;99.90
23114;DHT22;11726;50.122;8.832;2022-12-07T04:59:45;4.40;99.90
23114;DHT22;11726;50.122;8.832;2022-12-07T05:02:12;4.40;99.90
23114;DHT22;11726;50.122;8.832;2022-12-07T05:04:38;4.40;99.90
23114;DHT22;11726;50.122;8.832;2022-12-07T05:07:05;4.40;99.90
23114;DHT22;11726;50.122;8.832;2022-12-07T05:09:31;4.40;99.90
23114;DHT22;11726;50.122;8.832;2022-12-07T05:11:58;4.40;99.90
23114;DHT22;11726;50.122;8.832;2022-12-07T05:14:24;4.50;99.90
23114;DHT22;11726;50.122;8.832;2022-12-07T05:16:51;4.50;99.90
23114;DHT22;11726;50.122;8.832;2022-12-07T05:19:18;4.50;99.90
23114;DHT22;11726;50.122;8.832;2022-12-07T05:21:45;4.50;99.90
23114;DHT22;11726;50.122;8.832;2022-12-07T05:24:12;4.40;99.90
23114;DHT22;11726;50.122;8.832;2022-12-07T05:26:39;4.40;99.90
23114;DHT22;11726;50.122;8.832;2022-12-07T05:29:05;4.50;99.90
23114;DHT22;11726;50.122;8.832;2022-12-07T05:31:32;4.50;99.90
23114;DHT22;11726;50.122;8.832;2022-12-07T05:33:59;4.50;99.90
23114;DHT22;11726;50.122;8.832;2022-12-07T05:36:25;4.50;99.90
23114;DHT22;11726;50.122;8.832;2022-12-07T05:38:54;4.50;99.90
23114;DHT22;11726;50.122;8.832;2022-12-07T05:41:21;4.50;99.90
23114;DHT22;11726;50.122;8.832;2022-12-07T05:44:06;4.50;99.90
23114;DHT22;11726;50.122;8.832;2022-12-07T05:46:33;4.50;99.90
23114;DHT22;11726;50.122;8.832;2022-12-07T05:49:00;4.40;99.90
23114;DHT22;11726;50.122;8.832;2022-12-07T05:51:26;4.50;99.90
23114;DHT22;11726;50.122;8.832;2022-12-07T05:53:53;4.50;99.90
23114;DHT22;11726;50.122;8.832;2022-12-07T05:56:19;4.50;99.90
23114;DHT22;11726;50.122;8.832;2022-12-07T05:58:46;4.50;99.90
23114;DHT22;11726;50.122;8.832;2022-12-07T06:01:31;4.50;99.90
23114;DHT22;11726;50.122;8.832;2022-12-07T06:03:58;4.50;99.90
23114;DHT22;11726;50.122;8.832;2022-12-07T06:06:24;4.50;99.90
23114;DHT22;11726;50.122;8.832;2022-12-07T06:08:51;4.60;99.90
23114;DHT22;11726;50.122;8.832;2022-12-07T06:11:17;4.60;99.90
23114;DHT22;11726;50.122;8.832;2022-12-07T06:14:02;4.60;99.90
23114;DHT22;11726;50.122;8.832;2022-12-07T06:16:29;4.60;99.90
23114;DHT22;11726;50.122;8.832;2022-12-07T06:18:55;4.60;99.90
23114;DHT22;11726;50.122;8.832;2022-12-07T06:21:22;4.60;99.90
23114;DHT22;11726;50.122;8.832;2022-12-07T06:23:48;4.60;99.90
23114;DHT22;11726;50.122;8.832;2022-12-07T06:26:15;4.60;99.90
23114;DHT22;11726;50.122;8.832;2022-12-07T06:28:41;4.60;99.90
23114;DHT22;11726;50.122;8.832;2022-12-07T06:31:08;4.60;99.90
23114;DHT22;11726;50.122;8.832;2022-12-07T06:33:39;4.60;99.90
23114;DHT22;11726;50.122;8.832;2022-12-07T06:36:06;4.50;99.90
23114;DHT22;11726;50.122;8.832;2022-12-07T06:38:33;4.50;99.90
23114;DHT22;11726;50.122;8.832;2022-12-07T06:40:59;4.50;99.90
23114;DHT22;11726;50.122;8.832;2022-12-07T06:43:26;4.50;99.90
23114;DHT22;11726;50.122;8.832;2022-12-07T06:45:53;4.50;99.90
23114;DHT22;11726;50.122;8.832;2022-12-07T06:48:20;4.40;99.90
23114;DHT22;11726;50.122;8.832;2022-12-07T06:50:47;4.40;99.90
23114;DHT22;11726;50.122;8.832;2022-12-07T06:53:20;4.50;99.90
23114;DHT22;11726;50.122;8.832;2022-12-07T06:55:46;4.40;99.90
23114;DHT22;11726;50.122;8.832;2022-12-07T06:58:13;4.50;99.90
23114;DHT22;11726;50.122;8.832;2022-12-07T07:00:39;4.40;99.90
23114;DHT22;11726;50.122;8.832;2022-12-07T07:03:06;4.40;99.90
23114;DHT22;11726;50.122;8.832;2022-12-07T07:05:33;4.40;99.90
23114;DHT22;11726;50.122;8.832;2022-12-07T07:08:00;4.40;99.90
23114;DHT22;11726;50.122;8.832;2022-12-07T07:10:46;4.50;99.90
23114;DHT22;11726;50.122;8.832;2022-12-07T07:13:13;4.50;99.90
23114;DHT22;11726;50.122;8.832;2022-12-07T07:15:39;4.50;99.90
23114;DHT22;11726;50.122;8.832;2022-12-07T07:18:06;4.50;99.90
23114;DHT22;11726;50.122;8.832;2022-12-07T07:20:33;4.50;99.90
23114;DHT22;11726;50.122;8.832;2022-12-07T07:23:00;4.50;99.90
23114;DHT22;11726;50.122;8.832;2022-12-07T07:25:27;4.60;99.90
23114;DHT22;11726;50.122;8.832;2022-12-07T07:27:53;4.50;99.90
23114;DHT22;11726;50.122;8.832;2022-12-07T07:30:20;4.50;99.90
23114;DHT22;11726;50.122;8.832;2022-12-07T07:32:46;4.50;99.90
23114;DHT22;11726;50.122;8.832;2022-12-07T07:35:13;4.50;99.90
23114;DHT22;11726;50.122;8.832;2022-12-07T07:37:40;4.50;99.90
23114;DHT22;11726;50.122;8.832;2022-12-07T07:40:07;4.50;99.90
23114;DHT22;11726;50.122;8.832;2022-12-07T07:42:34;4.50;99.90
23114;DHT22;11726;50.122;8.832;2022-12-07T07:45:01;4.50;99.90
23114;DHT22;11726;50.122;8.832;2022-12-07T07:47:27;4.50;99.90
23114;DHT22;11726;50.122;8.832;2022-12-07T07:49:55;4.50;99.90
23114;DHT22;11726;50.122;8.832;2022-12-07T07:52:21;4.50;99.90
23114;DHT22;11726;50.122;8.832;2022-12-07T07:54:48;4.50;99.90
23114;DHT22;11726;50.122;8.832;2022-12-07T07:57:15;4.50;99.90
23114;DHT22;11726;50.122;8.832;2022-12-07T07:59:42;4.60;99.90
23114;DHT22;11726;50.122;8.832;2022-12-07T08:02:12;4.60;99.90
23114;DHT22;11726;50.122;8.832;2022-12-07T08:04:40;4.60;99.90
23114;DHT22;11726;50.122;8.832;2022-12-07T08:07:06;4.60;99.90
23114;DHT22;11726;50.122;8.832;2022-12-07T08:09:33;4.70;99.90
23114;DHT22;11726;50.122;8.832;2022-12-07T08:11:59;4.70;99.90
23114;DHT22;11726;50.122;8.832;2022-12-07T08:14:27;4.70;99.90
23114;DHT22;11726;50.122;8.832;2022-12-07T08:16:55;4.80;99.90
23114;DHT22;11726;50.122;8.832;2022-12-07T08:19:21;4.80;99.90
23114;DHT22;11726;50.122;8.832;2022-12-07T08:21:48;4.80;99.90
23114;DHT22;11726;50.122;8.832;2022-12-07T08:24:14;4.90;99.90
23114;DHT22;11726;50.122;8.832;2022-12-07T08:26:41;4.90;99.90
23114;DHT22;11726;50.122;8.832;2022-12-07T08:29:08;4.90;99.90
23114;DHT22;11726;50.122;8.832;2022-12-07T08:31:34;4.90;99.90
23114;DHT22;11726;50.122;8.832;2022-12-07T08:34:01;4.90;99.90
23114;DHT22;11726;50.122;8.832;2022-12-07T08:36:28;4.90;99.90
23114;DHT22;11726;50.122;8.832;2022-12-07T08:38:54;4.90;99.90
23114;DHT22;11726;50.122;8.832;2022-12-07T08:41:41;4.90;99.90
23114;DHT22;11726;50.122;8.832;2022-12-07T08:44:07;4.80;99.90
23114;DHT22;11726;50.122;8.832;2022-12-07T08:46:38;4.80;99.90
23114;DHT22;11726;50.122;8.832;2022-12-07T08:49:08;4.80;99.90
23114;DHT22;11726;50.122;8.832;2022-12-07T08:51:35;4.80;99.90
23114;DHT22;11726;50.122;8.832;2022-12-07T08:54:03;4.70;99.90
23114;DHT22;11726;50.122;8.832;2022-12-07T08:56:31;4.80;99.90
23114;DHT22;11726;50.122;8.832;2022-12-07T08:58:57;4.70;99.90
23114;DHT22;11726;50.122;8.832;2022-12-07T09:01:24;4.70;99.90
23114;DHT22;11726;50.122;8.832;2022-12-07T09:03:51;4.60;99.90
23114;DHT22;11726;50.122;8.832;2022-12-07T09:06:17;4.60;99.90
23114;DHT22;11726;50.122;8.832;2022-12-07T09:08:45;4.60;99.90
23114;DHT22;11726;50.122;8.832;2022-12-07T09:11:12;4.70;99.90
23114;DHT22;11726;50.122;8.832;2022-12-07T09:13:39;4.80;99.90
23114;DHT22;11726;50.122;8.832;2022-12-07T09:16:05;4.90;99.90
23114;DHT22;11726;50.122;8.832;2022-12-07T09:18:32;5.00;99.90
23114;DHT22;11726;50.122;8.832;2022-12-07T09:20:58;5.20;99.90
23114;DHT22;11726;50.122;8.832;2022-12-07T09:23:25;5.30;99.90
23114;DHT22;11726;50.122;8.832;2022-12-07T09:25:51;5.40;99.90
23114;DHT22;11726;50.122;8.832;2022-12-07T09:28:18;5.50;99.90
23114;DHT22;11726;50.122;8.832;2022-12-07T09:30:45;5.60;99.90
23114;DHT22;11726;50.122;8.832;2022-12-07T09:33:32;5.70;99.90
23114;DHT22;11726;50.122;8.832;2022-12-07T09:35:59;5.70;99.90
23114;DHT22;11726;50.122;8.832;2022-12-07T09:38:25;5.70;99.90
23114;DHT22;11726;50.122;8.832;2022-12-07T09:40:53;5.80;99.90
23114;DHT22;11726;50.122;8.832;2022-12-07T09:43:21;5.80;99.90
23114;DHT22;11726;50.122;8.832;2022-12-07T09:45:53;6.00;99.90
23114;DHT22;11726;50.122;8.832;2022-12-07T09:48:22;6.00;99.90
23114;DHT22;11726;50.122;8.832;2022-12-07T09:50:51;6.10;99.90
23114;DHT22;11726;50.122;8.832;2022-12-07T09:53:28;6.10;99.90
23114;DHT22;11726;50.122;8.832;2022-12-07T09:55:55;6.10;99.90
23114;DHT22;11726;50.122;8.832;2022-12-07T09:58:26;6.00;99.90
23114;DHT22;11726;50.122;8.832;2022-12-07T10:01:13;6.00;99.90
23114;DHT22;11726;50.122;8.832;2022-12-07T10:03:41;6.00;99.90
23114;DHT22;11726;50.122;8.832;2022-12-07T10:06:10;5.90;99.90
23114;DHT22;11726;50.122;8.832;2022-12-07T10:08:37;5.80;99.90
23114;DHT22;11726;50.122;8.832;2022-12-07T10:11:03;5.70;99.90
23114;DHT22;11726;50.122;8.832;2022-12-07T10:13:34;5.80;99.90
23114;DHT22;11726;50.122;8.832;2022-12-07T10:16:01;5.80;99.90
23114;DHT22;11726;50.122;8.832;2022-12-07T10:18:36;5.90;99.90
23114;DHT22;11726;50.122;8.832;2022-12-07T10:23:30;6.10;99.90
23114;DHT22;11726;50.122;8.832;2022-12-07T10:25:56;6.10;99.90
23114;DHT22;11726;50.122;8.832;2022-12-07T10:28:23;6.10;99.90
23114;DHT22;11726;50.122;8.832;2022-12-07T10:31:00;6.20;99.90
23114;DHT22;11726;50.122;8.832;2022-12-07T10:33:33;6.30;99.90
23114;DHT22;11726;50.122;8.832;2022-12-07T10:36:00;6.20;99.90
23114;DHT22;11726;50.122;8.832;2022-12-07T10:38:27;6.30;99.90
23114;DHT22;11726;50.122;8.832;2022-12-07T10:41:04;6.40;99.90
23114;DHT22;11726;50.122;8.832;2022-12-07T10:43:31;6.50;99.90
23114;DHT22;11726;50.122;8.832;2022-12-07T11:01:13;7.20;99.90
23114;DHT22;11726;50.122;8.832;2022-12-07T11:03:47;7.20;99.90
23114;DHT22;11726;50.122;8.832;2022-12-07T11:06:23;7.20;99.90
23114;DHT22;11726;50.122;8.832;2022-12-07T11:09:03;7.30;99.90
23114;DHT22;11726;50.122;8.832;2022-12-07T11:16:36;7.20;99.90
23114;DHT22;11726;50.122;8.832;2022-12-07T11:19:13;7.20;99.90
23114;DHT22;11726;50.122;8.832;2022-12-07T11:21:58;7.20;99.90
23114;DHT22;11726;50.122;8.832;2022-12-07T11:24:36;7.20;99.90
23114;DHT22;11726;50.122;8.832;2022-12-07T11:27:14;7.00;99.90
23114;DHT22;11726;50.122;8.832;2022-12-07T11:32:39;7.00;99.90
23114;DHT22;11726;50.122;8.832;2022-12-07T11:38:20;6.90;99.90
23114;DHT22;11726;50.122;8.832;2022-12-07T11:40:55;6.90;99.90
23114;DHT22;11726;50.122;8.832;2022-12-07T11:43:46;6.80;99.90
23114;DHT22;11726;50.122;8.832;2022-12-07T11:46:17;6.80;99.90
23114;DHT22;11726;50.122;8.832;2022-12-07T11:48:50;6.90;99.90
23114;DHT22;11726;50.122;8.832;2022-12-07T11:51:18;6.90;99.90
23114;DHT22;11726;50.122;8.832;2022-12-07T11:53:49;6.90;99.90
23114;DHT22;11726;50.122;8.832;2022-12-07T11:56:22;7.00;99.90
23114;DHT22;11726;50.122;8.832;2022-12-07T12:15:16;6.90;99.90
23114;DHT22;11726;50.122;8.832;2022-12-07T12:22:57;6.70;99.90
23114;DHT22;11726;50.122;8.832;2022-12-07T12:25:26;6.70;99.90
23114;DHT22;11726;50.122;8.832;2022-12-07T12:27:55;6.80;99.90
23114;DHT22;11726;50.122;8.832;2022-12-07T12:30:24;7.00;99.90
23114;DHT22;11726;50.122;8.832;2022-12-07T12:32:52;7.00;99.90
23114;DHT22;11726;50.122;8.832;2022-12-07T12:35:29;7.10;99.90
23114;DHT22;11726;50.122;8.832;2022-12-07T12:38:20;7.30;99.90
23114;DHT22;11726;50.122;8.832;2022-12-07T12:40:50;7.40;99.90
23114;DHT22;11726;50.122;8.832;2022-12-07T12:48:47;7.30;99.90
23114;DHT22;11726;50.122;8.832;2022-12-07T12:54:05;7.20;99.90
23114;DHT22;11726;50.122;8.832;2022-12-07T12:56:41;7.20;99.90
23114;DHT22;11726;50.122;8.832;2022-12-07T13:01:47;7.20;99.90
23114;DHT22;11726;50.122;8.832;2022-12-07T13:04:25;7.20;99.90
23114;DHT22;11726;50.122;8.832;2022-12-07T13:06:51;7.20;99.90
23114;DHT22;11726;50.122;8.832;2022-12-07T13:09:20;7.10;99.90
23114;DHT22;11726;50.122;8.832;2022-12-07T13:11:48;7.10;99.90
23114;DHT22;11726;50.122;8.832;2022-12-07T13:17:01;6.90;99.90
23114;DHT22;11726;50.122;8.832;2022-12-07T13:24:56;6.20;99.90
23114;DHT22;11726;50.122;8.832;2022-12-07T13:27:24;6.10;99.90
23114;DHT22;11726;50.122;8.832;2022-12-07T13:29:51;6.10;99.90
23114;DHT22;11726;50.122;8.832;2022-12-07T13:32:25;6.10;99.90
23114;DHT22;11726;50.122;8.832;2022-12-07T13:34:52;6.10;99.90
23114;DHT22;11726;50.122;8.832;2022-12-07T13:39:50;6.20;99.90
23114;DHT22;11726;50.122;8.832;2022-12-07T13:44:53;6.20;99.90
23114;DHT22;11726;50.122;8.832;2022-12-07T13:47:38;6.30;99.90
23114;DHT22;11726;50.122;8.832;2022-12-07T13:50:24;6.30;99.90
23114;DHT22;11726;50.122;8.832;2022-12-07T13:52:54;6.30;99.90
23114;DHT22;11726;50.122;8.832;2022-12-07T13:55:21;6.30;99.90
23114;DHT22;11726;50.122;8.832;2022-12-07T13:57:49;6.20;99.90
23114;DHT22;11726;50.122;8.832;2022-12-07T14:00:20;6.10;99.90
23114;DHT22;11726;50.122;8.832;2022-12-07T14:02:58;6.10;99.90
23114;DHT22;11726;50.122;8.832;2022-12-07T14:05:28;6.10;99.90
23114;DHT22;11726;50.122;8.832;2022-12-07T14:07:59;6.10;99.90
23114;DHT22;11726;50.122;8.832;2022-12-07T14:10:30;6.10;99.90
23114;DHT22;11726;50.122;8.832;2022-12-07T14:12:57;6.10;99.90
23114;DHT22;11726;50.122;8.832;2022-12-07T14:15:25;6.10;99.90
23114;DHT22;11726;50.122;8.832;2022-12-07T14:17:53;6.10;99.90
23114;DHT22;11726;50.122;8.832;2022-12-07T14:20:31;6.10;99.90
23114;DHT22;11726;50.122;8.832;2022-12-07T14:22:58;6.20;99.90
23114;DHT22;11726;50.122;8.832;2022-12-07T14:25:26;6.10;99.90
23114;DHT22;11726;50.122;8.832;2022-12-07T14:27:54;6.10;99.90
23114;DHT22;11726;50.122;8.832;2022-12-07T14:30:23;6.10;99.90
23114;DHT22;11726;50.122;8.832;2022-12-07T14:32:51;6.00;99.90
23114;DHT22;11726;50.122;8.832;2022-12-07T14:35:18;6.10;99.90
23114;DHT22;11726;50.122;8.832;2022-12-07T14:37:47;6.10;99.90
23114;DHT22;11726;50.122;8.832;2022-12-07T14:40:21;6.10;99.90
23114;DHT22;11726;50.122;8.832;2022-12-07T14:42:50;6.10;99.90
23114;DHT22;11726;50.122;8.832;2022-12-07T14:45:18;6.10;99.90
23114;DHT22;11726;50.122;8.832;2022-12-07T14:47:45;6.00;99.90
23114;DHT22;11726;50.122;8.832;2022-12-07T14:50:34;6.00;99.90
23114;DHT22;11726;50.122;8.832;2022-12-07T14:53:02;6.00;99.90
23114;DHT22;11726;50.122;8.832;2022-12-07T14:55:48;6.00;99.90
23114;DHT22;11726;50.122;8.832;2022-12-07T14:58:15;6.00;99.90
23114;DHT22;11726;50.122;8.832;2022-12-07T15:00:42;6.00;99.90
23114;DHT22;11726;50.122;8.832;2022-12-07T15:03:08;5.90;99.90
23114;DHT22;11726;50.122;8.832;2022-12-07T15:05:35;5.90;99.90
23114;DHT22;11726;50.122;8.832;2022-12-07T15:08:02;5.90;99.90
23114;DHT22;11726;50.122;8.832;2022-12-07T15:10:29;5.90;99.90
23114;DHT22;11726;50.122;8.832;2022-12-07T15:12:58;6.00;99.90
23114;DHT22;11726;50.122;8.832;2022-12-07T15:15:45;6.00;99.90
23114;DHT22;11726;50.122;8.832;2022-12-07T15:18:11;6.10;99.90
23114;DHT22;11726;50.122;8.832;2022-12-07T15:20:38;6.00;99.90
23114;DHT22;11726;50.122;8.832;2022-12-07T15:23:05;5.90;99.90
23114;DHT22;11726;50.122;8.832;2022-12-07T15:25:31;6.00;99.90
23114;DHT22;11726;50.122;8.832;2022-12-07T15:27:58;6.00;99.90
23114;DHT22;11726;50.122;8.832;2022-12-07T15:30:24;5.80;99.90
23114;DHT22;11726;50.122;8.832;2022-12-07T15:32:51;5.80;99.90
23114;DHT22;11726;50.122;8.832;2022-12-07T15:35:18;5.80;99.90
23114;DHT22;11726;50.122;8.832;2022-12-07T15:37:45;5.70;99.90
23114;DHT22;11726;50.122;8.832;2022-12-07T15:40:11;5.60;99.90
23114;DHT22;11726;50.122;8.832;2022-12-07T15:42:38;5.60;99.90
23114;DHT22;11726;50.122;8.832;2022-12-07T15:45:05;5.60;99.90
23114;DHT22;11726;50.122;8.832;2022-12-07T15:47:34;5.50;99.90
23114;DHT22;11726;50.122;8.832;2022-12-07T15:50:22;5.40;99.90
23114;DHT22;11726;50.122;8.832;2022-12-07T15:52:48;5.40;99.90
23114;DHT22;11726;50.122;8.832;2022-12-07T15:55:15;5.40;99.90
23114;DHT22;11726;50.122;8.832;2022-12-07T15:57:42;5.40;99.90
23114;DHT22;11726;50.122;8.832;2022-12-07T16:00:08;5.40;99.90
23114;DHT22;11726;50.122;8.832;2022-12-07T16:02:36;5.40;99.90
23114;DHT22;11726;50.122;8.832;2022-12-07T16:05:05;5.40;99.90
23114;DHT22;11726;50.122;8.832;2022-12-07T16:07:32;5.30;99.90
23114;DHT22;11726;50.122;8.832;2022-12-07T16:09:58;5.30;99.90
23114;DHT22;11726;50.122;8.832;2022-12-07T16:12:25;5.30;99.90
23114;DHT22;11726;50.122;8.832;2022-12-07T16:14:52;5.30;99.90
23114;DHT22;11726;50.122;8.832;2022-12-07T16:17:18;5.30;99.90
23114;DHT22;11726;50.122;8.832;2022-12-07T16:19:45;5.30;99.90
23114;DHT22;11726;50.122;8.832;2022-12-07T16:22:11;5.30;99.90
23114;DHT22;11726;50.122;8.832;2022-12-07T16:24:38;5.30;99.90
23114;DHT22;11726;50.122;8.832;2022-12-07T16:27:04;5.30;99.90
23114;DHT22;11726;50.122;8.832;2022-12-07T16:29:31;5.30;99.90
23114;DHT22;11726;50.122;8.832;2022-12-07T16:31:57;5.30;99.90
23114;DHT22;11726;50.122;8.832;2022-12-07T16:34:24;5.30;99.90
23114;DHT22;11726;50.122;8.832;2022-12-07T16:36:50;5.30;99.90
23114;DHT22;11726;50.122;8.832;2022-12-07T16:39:32;5.30;99.90
23114;DHT22;11726;50.122;8.832;2022-12-07T16:41:59;5.30;99.90
23114;DHT22;11726;50.122;8.832;2022-12-07T16:44:26;5.30;99.90
23114;DHT22;11726;50.122;8.832;2022-12-07T16:46:52;5.30;99.90
23114;DHT22;11726;50.122;8.832;2022-12-07T16:49:19;5.20;99.90
23114;DHT22;11726;50.122;8.832;2022-12-07T16:51:48;5.30;99.90
23114;DHT22;11726;50.122;8.832;2022-12-07T16:54:35;5.30;99.90
23114;DHT22;11726;50.122;8.832;2022-12-07T16:57:02;5.20;99.90
23114;DHT22;11726;50.122;8.832;2022-12-07T16:59:28;5.20;99.90
23114;DHT22;11726;50.122;8.832;2022-12-07T17:01:55;5.20;99.90
23114;DHT22;11726;50.122;8.832;2022-12-07T17:04:22;5.20;99.90
23114;DHT22;11726;50.122;8.832;2022-12-07T17:06:49;5.30;99.90
23114;DHT22;11726;50.122;8.832;2022-12-07T17:09:15;5.20;99.90
23114;DHT22;11726;50.122;8.832;2022-12-07T17:11:47;5.30;99.90
23114;DHT22;11726;50.122;8.832;2022-12-07T17:14:13;5.30;99.90
23114;DHT22;11726;50.122;8.832;2022-12-07T17:16:58;5.20;99.90
23114;DHT22;11726;50.122;8.832;2022-12-07T17:19:26;5.20;99.90
23114;DHT22;11726;50.122;8.832;2022-12-07T17:21:52;5.20;99.90
23114;DHT22;11726;50.122;8.832;2022-12-07T17:24:19;5.20;99.90
23114;DHT22;11726;50.122;8.832;2022-12-07T17:26:46;5.30;99.90
23114;DHT22;11726;50.122;8.832;2022-12-07T17:29:13;5.20;99.90
23114;DHT22;11726;50.122;8.832;2022-12-07T17:31:40;5.30;99.90
23114;DHT22;11726;50.122;8.832;2022-12-07T17:34:13;5.20;99.90
23114;DHT22;11726;50.122;8.832;2022-12-07T17:36:40;5.20;99.90
23114;DHT22;11726;50.122;8.832;2022-12-07T17:39:11;5.20;99.90
23114;DHT22;11726;50.122;8.832;2022-12-07T17:41:39;5.20;99.90
23114;DHT22;11726;50.122;8.832;2022-12-07T17:44:24;5.10;99.90
23114;DHT22;11726;50.122;8.832;2022-12-07T17:46:51;5.20;99.90
23114;DHT22;11726;50.122;8.832;2022-12-07T17:49:23;5.20;99.90
23114;DHT22;11726;50.122;8.832;2022-12-07T17:51:49;5.20;99.90
23114;DHT22;11726;50.122;8.832;2022-12-07T17:54:34;5.20;99.90